Millardsville, Pennsylvania
Current Conditions -  °F | °C
As of 7:58 PM on Tuesday 21 Oct 2014 (Local Time) from KMUI Reporting Station
Broken Clouds Broken Clouds  
Wind Chill: 57°   Ceiling: 6000
Heat Index: 57°   Visibility: 10mi
Dew Point: 51°   Wind: 0mph
Humidity: 82%   Direction: NA
Pressure: 29.88"   Gusts: NA
Location:  40.3869°N, 76.3173°W
Report Text: KMUI 212358Z AUTO 00000KT 10SM BKN060 BKN160 14/11 A2988 RMK AO2 SLP122 T01380107 10172 20134 52016 $
Loading
Personal Weather Stations






























Interactive Weather Map
Tropical Storm Tracking
New forecast layout! Learn more

10-Day Weather Forecast

Advertisements
Track Severe Weather on mobile